createdAt,value
2017-08-01T00:00:36.603Z,18.90
2017-08-01T00:03:04.175Z,18.90
2017-08-01T00:05:32.534Z,18.90
2017-08-01T00:08:00.945Z,18.90
2017-08-01T00:10:28.535Z,18.90
2017-08-01T00:12:56.898Z,18.90
2017-08-01T00:15:25.286Z,18.90
2017-08-01T00:17:52.860Z,18.80
2017-08-01T00:20:20.440Z,18.80
2017-08-01T00:22:48.123Z,18.80
2017-08-01T00:25:15.708Z,18.80
2017-08-01T00:27:43.282Z,18.70
2017-08-01T00:30:10.924Z,18.70
2017-08-01T00:32:38.495Z,18.60
2017-08-01T00:35:06.090Z,18.60
2017-08-01T00:37:33.906Z,18.50
2017-08-01T00:40:01.489Z,18.50
2017-08-01T00:42:29.059Z,18.40
2017-08-01T00:44:56.713Z,18.40
2017-08-01T00:47:24.306Z,18.40
2017-08-01T00:49:51.897Z,18.30
2017-08-01T00:52:19.517Z,18.30
2017-08-01T00:54:47.864Z,18.40
2017-08-01T00:57:15.444Z,18.40
2017-08-01T00:59:43.287Z,18.40
2017-08-01T01:02:10.928Z,18.40
2017-08-01T01:04:38.530Z,18.40
2017-08-01T01:07:06.370Z,18.40
2017-08-01T01:09:33.960Z,18.40
2017-08-01T01:12:02.300Z,18.40
2017-08-01T01:14:30.908Z,18.40
2017-08-01T01:16:58.476Z,18.40
2017-08-01T01:19:26.051Z,18.40
2017-08-01T01:21:53.658Z,18.40
2017-08-01T01:24:21.245Z,18.40
2017-08-01T01:26:48.829Z,18.40
2017-08-01T01:29:16.475Z,18.40
2017-08-01T01:31:44.042Z,18.40
2017-08-01T01:34:11.609Z,18.50
2017-08-01T01:36:39.209Z,18.50
2017-08-01T01:39:06.789Z,18.50
2017-08-01T01:41:34.359Z,18.50
2017-08-01T01:44:02.069Z,18.40
2017-08-01T01:46:29.652Z,18.40
2017-08-01T01:48:57.226Z,18.30
2017-08-01T01:51:25.695Z,18.10
2017-08-01T01:53:53.294Z,18.10
2017-08-01T01:56:20.876Z,18.10
2017-08-01T01:58:49.281Z,18.10
2017-08-01T02:01:16.907Z,18.10
2017-08-01T02:03:44.482Z,18.10
2017-08-01T02:06:12.112Z,18.10
2017-08-01T02:08:39.692Z,18.10
2017-08-01T02:11:07.285Z,18.10
2017-08-01T02:13:35.132Z,18.10
2017-08-01T02:16:02.735Z,18.10
2017-08-01T02:18:31.086Z,18.10
2017-08-01T02:20:58.720Z,18.10
2017-08-01T02:23:26.287Z,18.10
2017-08-01T02:25:53.882Z,18.20
2017-08-01T02:28:21.508Z,18.20
2017-08-01T02:30:49.847Z,18.20
2017-08-01T02:33:17.422Z,18.20
2017-08-01T02:35:45.030Z,18.20
2017-08-01T02:38:12.665Z,18.30
2017-08-01T02:40:40.243Z,18.30
2017-08-01T02:43:08.644Z,18.30
2017-08-01T02:45:36.209Z,18.20
2017-08-01T02:48:03.778Z,18.30
2017-08-01T02:50:31.403Z,18.30
2017-08-01T02:52:59.756Z,18.20
2017-08-01T02:55:27.346Z,18.20
2017-08-01T02:57:54.978Z,18.20
2017-08-01T03:00:22.560Z,18.20
2017-08-01T03:02:50.158Z,18.20
2017-08-01T03:05:18.744Z,18.30
2017-08-01T03:07:46.313Z,18.20
2017-08-01T03:10:13.896Z,18.30
2017-08-01T03:12:41.515Z,18.30
2017-08-01T03:15:09.109Z,18.30
2017-08-01T03:17:36.702Z,18.30
2017-08-01T03:20:04.310Z,18.30
2017-08-01T03:22:31.906Z,18.30
2017-08-01T03:24:59.488Z,18.30
2017-08-01T03:27:27.114Z,18.30
2017-08-01T03:29:55.474Z,18.30
2017-08-01T03:32:23.042Z,18.20
2017-08-01T03:34:50.668Z,18.30
2017-08-01T03:37:19.027Z,18.30
2017-08-01T03:39:47.374Z,18.30
2017-08-01T03:42:15.004Z,18.30
2017-08-01T03:44:42.588Z,18.30
2017-08-01T03:47:10.181Z,18.30
2017-08-01T03:49:37.817Z,18.30
2017-08-01T03:52:06.164Z,18.30
2017-08-01T03:54:33.794Z,18.30
2017-08-01T03:57:01.432Z,18.30
2017-08-01T03:59:29.021Z,18.30
2017-08-01T04:01:56.608Z,18.30
2017-08-01T04:04:24.245Z,18.30
2017-08-01T04:06:51.841Z,18.30
2017-08-01T04:09:20.178Z,18.20
2017-08-01T04:11:47.805Z,18.20
2017-08-01T04:14:15.387Z,18.20
2017-08-01T04:16:43.740Z,18.20
2017-08-01T04:19:11.345Z,18.10
2017-08-01T04:21:38.910Z,18.20
2017-08-01T04:24:06.492Z,18.20
2017-08-01T04:26:34.116Z,18.20
2017-08-01T04:29:01.697Z,18.30
2017-08-01T04:31:29.393Z,18.30
2017-08-01T04:33:57.021Z,18.30
2017-08-01T04:36:24.598Z,18.30
2017-08-01T04:38:52.944Z,18.40
2017-08-01T04:41:20.573Z,18.30
2017-08-01T04:43:48.152Z,18.40
2017-08-01T04:46:15.750Z,18.40
2017-08-01T04:48:43.374Z,18.50
2017-08-01T04:51:11.714Z,18.50
2017-08-01T04:53:39.302Z,18.50
2017-08-01T04:56:06.949Z,18.50
2017-08-01T04:58:34.538Z,18.50
2017-08-01T05:01:02.114Z,18.50
2017-08-01T05:03:30.486Z,18.50
2017-08-01T05:05:58.851Z,18.50
2017-08-01T05:08:27.200Z,18.50
2017-08-01T05:10:55.590Z,18.50
2017-08-01T05:13:23.159Z,18.50
2017-08-01T05:15:50.760Z,18.40
2017-08-01T05:18:19.182Z,18.40
2017-08-01T05:20:46.763Z,18.30
2017-08-01T05:23:15.113Z,18.20
2017-08-01T05:25:42.748Z,18.20
2017-08-01T05:28:10.328Z,18.10
2017-08-01T05:30:37.922Z,18.10
2017-08-01T05:33:05.553Z,18.00
2017-08-01T05:35:33.147Z,18.00
2017-08-01T05:38:00.727Z,18.00
2017-08-01T05:40:28.343Z,18.00
2017-08-01T05:42:56.702Z,18.10
2017-08-01T05:45:24.299Z,18.10
2017-08-01T05:47:52.110Z,18.20
2017-08-01T05:50:19.697Z,18.20
2017-08-01T05:52:47.293Z,18.30
2017-08-01T05:55:15.140Z,18.30
2017-08-01T05:57:42.738Z,18.20
2017-08-01T06:00:10.306Z,18.20
2017-08-01T06:02:38.692Z,18.10
2017-08-01T06:05:06.350Z,18.10
2017-08-01T06:07:33.998Z,18.30
2017-08-01T06:10:01.620Z,18.40
2017-08-01T06:12:29.225Z,18.40
2017-08-01T06:14:56.796Z,18.50
2017-08-01T06:17:25.206Z,18.50
2017-08-01T06:19:52.783Z,18.50
2017-08-01T06:22:20.355Z,18.60
2017-08-01T06:24:48.770Z,18.60
2017-08-01T06:27:16.351Z,18.60
2017-08-01T06:29:44.698Z,18.50
2017-08-01T06:32:12.334Z,18.50
2017-08-01T06:34:39.978Z,18.50
2017-08-01T06:37:07.559Z,18.50
2017-08-01T06:39:35.961Z,18.50
2017-08-01T06:42:03.533Z,18.50
2017-08-01T06:44:31.134Z,18.60
2017-08-01T06:46:58.774Z,18.70
2017-08-01T06:49:27.130Z,19.00
2017-08-01T06:51:55.486Z,19.40
2017-08-01T06:54:24.729Z,19.30
2017-08-01T06:56:52.527Z,20.00
2017-08-01T06:59:20.174Z,20.60
2017-08-01T07:01:48.046Z,20.80
2017-08-01T07:04:15.643Z,20.70
2017-08-01T07:06:43.224Z,21.00
2017-08-01T07:09:10.835Z,21.00
2017-08-01T07:11:38.422Z,21.00
2017-08-01T07:14:05.986Z,20.90
2017-08-01T07:16:33.614Z,20.90
2017-08-01T07:19:01.201Z,20.80
2017-08-01T07:21:28.790Z,20.70
2017-08-01T07:23:56.416Z,20.70
2017-08-01T07:26:24.745Z,20.90
2017-08-01T07:28:52.318Z,20.90
2017-08-01T07:31:20.724Z,21.30
2017-08-01T07:33:48.304Z,21.30
2017-08-01T07:36:15.872Z,21.50
2017-08-01T07:38:44.256Z,21.60
2017-08-01T07:41:11.822Z,21.60
2017-08-01T07:43:39.395Z,21.80
2017-08-01T07:46:07.021Z,22.20
2017-08-01T07:48:34.609Z,22.70
2017-08-01T07:51:02.189Z,22.90
2017-08-01T07:53:30.586Z,23.30
2017-08-01T07:55:58.158Z,23.30
2017-08-01T07:58:25.746Z,23.30
2017-08-01T08:00:54.333Z,23.40
2017-08-01T08:03:21.897Z,23.40
2017-08-01T08:05:49.480Z,23.50
2017-08-01T08:08:17.092Z,23.60
2017-08-01T08:10:44.672Z,23.80
2017-08-01T08:13:13.551Z,23.80
2017-08-01T08:15:41.199Z,23.80
2017-08-01T08:18:08.776Z,24.20
2017-08-01T08:20:36.361Z,24.70
2017-08-01T08:23:03.989Z,24.90
2017-08-01T08:25:31.582Z,24.50
2017-08-01T08:27:59.924Z,24.10
2017-08-01T08:30:27.611Z,24.10
2017-08-01T08:32:55.173Z,24.20
2017-08-01T08:35:22.738Z,24.20
2017-08-01T08:37:50.362Z,24.30
2017-08-01T08:40:17.958Z,24.60
2017-08-01T08:42:45.536Z,24.80
2017-08-01T08:45:13.168Z,24.60
2017-08-01T08:47:41.522Z,24.70
2017-08-01T08:50:09.869Z,24.60
2017-08-01T08:52:38.302Z,24.60
2017-08-01T08:55:05.926Z,24.60
2017-08-01T08:57:33.504Z,24.90
2017-08-01T09:00:01.132Z,24.90
2017-08-01T09:02:28.717Z,25.20
2017-08-01T09:04:57.064Z,25.90
2017-08-01T09:07:24.706Z,25.90
2017-08-01T09:09:52.268Z,26.00
2017-08-01T09:12:20.617Z,25.90
2017-08-01T09:14:48.234Z,25.90
2017-08-01T09:17:15.811Z,25.60
2017-08-01T09:19:43.388Z,25.40
2017-08-01T09:22:10.998Z,25.40
2017-08-01T09:24:38.586Z,25.70
2017-08-01T09:27:06.169Z,25.80
2017-08-01T09:29:33.887Z,25.90
2017-08-01T09:32:01.480Z,26.00
2017-08-01T09:34:29.060Z,26.00
2017-08-01T09:36:56.679Z,26.40
2017-08-01T09:39:25.024Z,26.20
2017-08-01T09:41:52.600Z,26.20
2017-08-01T09:44:20.975Z,26.00
2017-08-01T09:46:49.320Z,26.00
2017-08-01T09:49:16.910Z,25.90
2017-08-01T09:51:44.549Z,25.80
2017-08-01T09:54:12.119Z,26.20
2017-08-01T09:56:39.685Z,26.30
2017-08-01T09:59:07.312Z,26.20
2017-08-01T10:01:34.906Z,26.30
2017-08-01T10:04:03.256Z,26.30
2017-08-01T10:06:31.643Z,26.20
2017-08-01T10:08:59.229Z,26.20
2017-08-01T10:11:26.831Z,26.20
2017-08-01T10:13:54.466Z,26.20
2017-08-01T10:16:22.062Z,26.10
2017-08-01T10:18:49.646Z,26.40
2017-08-01T10:21:18.025Z,26.30
2017-08-01T10:23:45.604Z,26.30
2017-08-01T10:26:13.183Z,26.00
2017-08-01T10:28:42.409Z,25.70
2017-08-01T10:31:10.062Z,25.70
2017-08-01T10:33:37.660Z,25.70
2017-08-01T10:36:05.297Z,25.60
2017-08-01T10:38:32.992Z,25.50
2017-08-01T10:41:00.578Z,25.50
2017-08-01T10:43:28.227Z,25.60
2017-08-01T10:45:55.795Z,25.80
2017-08-01T10:48:23.376Z,26.10
2017-08-01T10:50:51.171Z,26.50
2017-08-01T10:53:18.742Z,26.70
2017-08-01T10:55:46.324Z,26.60
2017-08-01T10:58:13.950Z,26.40
2017-08-01T11:00:41.524Z,26.30
2017-08-01T11:03:09.868Z,26.30
2017-08-01T11:05:37.500Z,26.30
2017-08-01T11:08:05.148Z,26.50
2017-08-01T11:10:32.730Z,26.30
2017-08-01T11:13:01.144Z,26.60
2017-08-01T11:15:28.728Z,26.60
2017-08-01T11:17:57.063Z,27.00
2017-08-01T11:20:24.704Z,27.00
2017-08-01T11:22:52.283Z,27.10
2017-08-01T11:25:20.643Z,27.10
2017-08-01T11:27:49.155Z,26.90
2017-08-01T11:30:16.740Z,26.90
2017-08-01T11:32:44.320Z,26.80
2017-08-01T11:35:11.930Z,26.70
2017-08-01T11:37:39.494Z,26.60
2017-08-01T11:40:07.841Z,26.90
2017-08-01T11:42:36.228Z,27.00
2017-08-01T11:45:03.813Z,26.90
2017-08-01T11:47:31.400Z,26.80
2017-08-01T11:49:59.145Z,26.70
2017-08-01T11:52:26.725Z,26.50
2017-08-01T11:54:54.298Z,26.50
2017-08-01T11:57:21.917Z,26.70
2017-08-01T11:59:49.491Z,26.90
2017-08-01T12:02:17.066Z,26.90
2017-08-01T12:04:44.689Z,26.90
2017-08-01T12:07:12.259Z,26.80
2017-08-01T12:09:40.058Z,26.70
2017-08-01T12:12:07.706Z,26.50
2017-08-01T12:14:35.271Z,26.40
2017-08-01T12:17:03.626Z,26.10
2017-08-01T12:19:31.267Z,26.00
2017-08-01T12:21:58.845Z,25.90
2017-08-01T12:24:26.438Z,25.70
2017-08-01T12:26:54.060Z,25.70
2017-08-01T12:29:21.636Z,25.60
2017-08-01T12:31:49.220Z,25.60
2017-08-01T12:34:16.865Z,25.50
2017-08-01T12:36:44.458Z,25.40
2017-08-01T12:39:12.028Z,25.30
2017-08-01T12:41:39.665Z,25.20
2017-08-01T12:44:07.252Z,25.10
2017-08-01T12:46:34.823Z,25.00
2017-08-01T12:49:03.208Z,24.70
2017-08-01T12:51:30.782Z,24.70
2017-08-01T12:53:58.364Z,24.60
2017-08-01T12:56:26.755Z,24.50
2017-08-01T12:58:54.341Z,24.40
2017-08-01T13:01:21.933Z,24.40
2017-08-01T13:03:49.555Z,24.40
2017-08-01T13:06:17.146Z,24.40
2017-08-01T13:08:44.768Z,24.40
2017-08-01T13:11:12.383Z,24.40
2017-08-01T13:13:39.964Z,24.50
2017-08-01T13:16:07.548Z,24.50
2017-08-01T13:18:35.358Z,24.50
2017-08-01T13:21:02.937Z,24.60
2017-08-01T13:23:30.525Z,24.60
2017-08-01T13:25:58.909Z,24.70
2017-08-01T13:28:26.505Z,24.70
2017-08-01T13:30:54.097Z,24.70
2017-08-01T13:33:21.945Z,24.60
2017-08-01T13:35:49.527Z,24.60
2017-08-01T13:38:17.103Z,24.70
2017-08-01T13:40:45.513Z,24.80
2017-08-01T13:43:13.079Z,24.70
2017-08-01T13:45:41.436Z,24.80
2017-08-01T13:48:09.833Z,24.90
2017-08-01T13:50:37.416Z,24.90
2017-08-01T13:53:05.004Z,24.90
2017-08-01T13:55:32.636Z,25.00
2017-08-01T13:58:00.984Z,25.30
2017-08-01T14:00:29.341Z,25.40
2017-08-01T14:02:56.974Z,25.40
2017-08-01T14:05:24.557Z,25.50
2017-08-01T14:07:52.138Z,25.40
2017-08-01T14:10:19.761Z,25.40
2017-08-01T14:12:47.342Z,25.30
2017-08-01T14:15:14.922Z,25.30
2017-08-01T14:17:43.315Z,25.20
2017-08-01T14:20:10.911Z,25.20
2017-08-01T14:22:38.587Z,25.20
2017-08-01T14:25:06.222Z,25.30
2017-08-01T14:27:34.582Z,25.30
2017-08-01T14:30:02.911Z,25.40
2017-08-01T14:32:30.712Z,25.40
2017-08-01T14:34:58.287Z,25.50
2017-08-01T14:37:25.884Z,25.50
2017-08-01T14:39:54.281Z,25.50
2017-08-01T14:42:21.874Z,25.50
2017-08-01T14:44:49.446Z,25.50
2017-08-01T14:47:17.063Z,25.60
2017-08-01T14:49:44.659Z,25.50
2017-08-01T14:52:13.014Z,25.50
2017-08-01T14:54:41.391Z,25.40
2017-08-01T14:57:09.720Z,25.40
2017-08-01T14:59:37.290Z,25.40
2017-08-01T15:02:05.696Z,25.40
2017-08-01T15:04:33.274Z,25.30
2017-08-01T15:07:00.894Z,25.30
2017-08-01T15:09:28.531Z,25.20
2017-08-01T15:11:56.112Z,25.00
2017-08-01T15:14:23.692Z,24.90
2017-08-01T15:16:51.400Z,24.80
2017-08-01T15:19:18.982Z,24.50
2017-08-01T15:21:46.560Z,24.30
2017-08-01T15:24:14.200Z,24.20
2017-08-01T15:26:41.788Z,24.10
2017-08-01T15:29:10.150Z,23.70
2017-08-01T15:31:38.574Z,23.50
2017-08-01T15:34:06.149Z,23.50
2017-08-01T15:36:33.748Z,23.50
2017-08-01T15:39:01.377Z,23.40
2017-08-01T15:41:29.009Z,23.50
2017-08-01T15:43:56.589Z,23.50
2017-08-01T15:46:24.970Z,23.40
2017-08-01T15:48:52.561Z,23.40
2017-08-01T15:51:20.140Z,23.20
2017-08-01T15:53:48.518Z,23.00
2017-08-01T15:56:16.126Z,23.00
2017-08-01T15:58:43.714Z,23.00
2017-08-01T16:01:11.316Z,23.00
2017-08-01T16:03:38.909Z,23.00
2017-08-01T16:06:06.479Z,23.00
2017-08-01T16:08:34.109Z,22.90
2017-08-01T16:11:01.675Z,22.80
2017-08-01T16:13:29.256Z,22.70
2017-08-01T16:15:57.731Z,22.80
2017-08-01T16:18:25.317Z,22.70
2017-08-01T16:20:52.900Z,22.80
2017-08-01T16:23:21.272Z,22.60
2017-08-01T16:25:49.621Z,22.50
2017-08-01T16:28:17.216Z,22.50
2017-08-01T16:30:44.834Z,22.50
2017-08-01T16:33:12.433Z,22.40
2017-08-01T16:35:40.017Z,22.40
2017-08-01T16:38:08.390Z,22.30
2017-08-01T16:40:36.746Z,22.20
2017-08-01T16:43:05.106Z,22.10
2017-08-01T16:45:33.711Z,22.00
2017-08-01T16:48:01.288Z,22.00
2017-08-01T16:50:28.890Z,22.00
2017-08-01T16:52:56.826Z,21.90
2017-08-01T16:55:24.412Z,21.80
2017-08-01T16:57:51.988Z,21.80
2017-08-01T17:00:19.624Z,21.80
2017-08-01T17:02:47.220Z,21.80
2017-08-01T17:05:14.790Z,21.80
2017-08-01T17:07:42.438Z,21.70
2017-08-01T17:10:10.030Z,21.70
2017-08-01T17:12:38.375Z,21.60
2017-08-01T17:15:06.013Z,21.50
2017-08-01T17:17:33.596Z,21.50
2017-08-01T17:20:01.162Z,21.50
2017-08-01T17:22:28.781Z,21.50
2017-08-01T17:24:56.366Z,21.50
2017-08-01T17:27:23.952Z,21.50
2017-08-01T17:29:52.327Z,21.50
2017-08-01T17:32:19.923Z,21.50
2017-08-01T17:34:47.505Z,21.50
2017-08-01T17:37:15.912Z,21.40
2017-08-01T17:39:43.536Z,21.40
2017-08-01T17:42:11.875Z,21.40
2017-08-01T17:44:39.518Z,21.30
2017-08-01T17:47:07.111Z,21.40
2017-08-01T17:49:34.702Z,21.30
2017-08-01T17:52:02.327Z,21.30
2017-08-01T17:54:29.894Z,21.30
2017-08-01T17:56:57.462Z,21.40
2017-08-01T17:59:25.853Z,21.40
2017-08-01T18:01:53.431Z,21.40
2017-08-01T18:04:21.003Z,21.40
2017-08-01T18:06:49.406Z,21.40
2017-08-01T18:09:16.980Z,21.40
2017-08-01T18:11:44.569Z,21.40
2017-08-01T18:14:12.184Z,21.50
2017-08-01T18:16:39.779Z,21.50
2017-08-01T18:19:07.350Z,21.50
2017-08-01T18:21:34.997Z,21.60
2017-08-01T18:24:02.576Z,21.60
2017-08-01T18:26:30.937Z,21.60
2017-08-01T18:28:58.555Z,21.60
2017-08-01T18:31:26.148Z,21.60
2017-08-01T18:33:53.724Z,21.60
2017-08-01T18:36:21.355Z,21.60
2017-08-01T18:38:48.940Z,21.60
2017-08-01T18:41:17.298Z,21.50
2017-08-01T18:43:44.906Z,21.50
2017-08-01T18:46:12.501Z,21.50
2017-08-01T18:48:40.086Z,21.50
2017-08-01T18:51:07.713Z,21.40
2017-08-01T18:53:35.389Z,21.30
2017-08-01T18:56:02.969Z,21.30
2017-08-01T18:58:30.601Z,21.30
2017-08-01T19:00:58.962Z,21.30
2017-08-01T19:03:27.322Z,21.20
2017-08-01T19:05:55.708Z,21.20
2017-08-01T19:08:23.310Z,21.20
2017-08-01T19:10:50.904Z,21.20
2017-08-01T19:13:18.515Z,21.20
2017-08-01T19:15:46.096Z,21.10
2017-08-01T19:18:13.686Z,21.10
2017-08-01T19:20:41.309Z,21.10
2017-08-01T19:23:08.901Z,21.10
2017-08-01T19:25:37.252Z,21.10
2017-08-01T19:28:04.886Z,21.00
2017-08-01T19:30:32.463Z,21.10
2017-08-01T19:33:00.034Z,21.10
2017-08-01T19:35:27.916Z,21.10
2017-08-01T19:37:55.525Z,21.00
2017-08-01T19:40:23.122Z,21.00
2017-08-01T19:42:50.752Z,21.00
2017-08-01T19:45:19.095Z,20.90
2017-08-01T19:47:46.666Z,20.80
2017-08-01T19:50:15.060Z,20.70
2017-08-01T19:52:42.639Z,20.70
2017-08-01T19:55:10.382Z,20.70
2017-08-01T19:57:38.545Z,20.60
2017-08-01T20:00:07.311Z,20.50
2017-08-01T20:02:35.774Z,20.40
2017-08-01T20:05:03.580Z,20.40
2017-08-01T20:07:31.214Z,20.40
2017-08-01T20:09:58.782Z,20.30
2017-08-01T20:12:26.419Z,20.20
2017-08-01T20:14:54.005Z,20.20
2017-08-01T20:17:21.583Z,20.10
2017-08-01T20:19:49.973Z,20.00
2017-08-01T20:22:17.585Z,20.00
2017-08-01T20:24:45.941Z,19.90
2017-08-01T20:27:14.318Z,19.80
2017-08-01T20:29:42.670Z,19.80
2017-08-01T20:32:11.034Z,19.80
2017-08-01T20:34:39.507Z,19.70
2017-08-01T20:37:07.110Z,19.70
2017-08-01T20:39:34.706Z,19.70
2017-08-01T20:42:03.102Z,19.60
2017-08-01T20:44:30.705Z,19.50
2017-08-01T20:46:58.295Z,19.50
2017-08-01T20:49:25.941Z,19.40
2017-08-01T20:51:53.528Z,19.30
2017-08-01T20:54:21.123Z,19.30
2017-08-01T20:56:48.860Z,19.20
2017-08-01T20:59:16.456Z,19.20
2017-08-01T21:01:44.056Z,19.10
2017-08-01T21:04:11.918Z,19.10
2017-08-01T21:06:39.504Z,19.00
2017-08-01T21:09:07.074Z,19.00
2017-08-01T21:11:35.652Z,18.90
2017-08-01T21:14:03.245Z,18.90
2017-08-01T21:16:30.837Z,18.90
2017-08-01T21:18:58.454Z,18.90
2017-08-01T21:21:26.040Z,18.90
2017-08-01T21:23:53.638Z,18.90
2017-08-01T21:26:21.263Z,18.90
2017-08-01T21:28:48.864Z,19.00
2017-08-01T21:31:16.459Z,19.00
2017-08-01T21:33:44.272Z,19.00
2017-08-01T21:36:11.888Z,19.00
2017-08-01T21:38:40.250Z,18.90
2017-08-01T21:41:08.645Z,18.90
2017-08-01T21:43:36.242Z,18.90
2017-08-01T21:46:03.949Z,18.90
2017-08-01T21:48:31.586Z,18.80
2017-08-01T21:50:59.167Z,18.80
2017-08-01T21:53:26.759Z,18.80
2017-08-01T21:55:54.393Z,18.70
2017-08-01T21:58:22.740Z,18.60
2017-08-01T22:00:50.329Z,18.60
2017-08-01T22:03:18.172Z,18.60
2017-08-01T22:05:45.774Z,18.50
2017-08-01T22:08:13.360Z,18.50
2017-08-01T22:10:40.974Z,18.40
2017-08-01T22:13:09.332Z,18.30
2017-08-01T22:15:37.694Z,18.30
2017-08-01T22:18:06.103Z,18.20
2017-08-01T22:20:33.678Z,18.20
2017-08-01T22:23:01.246Z,18.20
2017-08-01T22:25:29.627Z,18.20
2017-08-01T22:27:57.217Z,18.20
2017-08-01T22:30:24.810Z,18.20
2017-08-01T22:32:52.456Z,18.20
2017-08-01T22:35:20.822Z,18.10
2017-08-01T22:37:48.418Z,18.10
2017-08-01T22:40:16.812Z,18.00
2017-08-01T22:42:44.390Z,18.00
2017-08-01T22:45:11.964Z,18.00
2017-08-01T22:47:40.368Z,17.90
2017-08-01T22:50:07.966Z,17.90
2017-08-01T22:52:36.308Z,17.80
2017-08-01T22:55:03.931Z,17.80
2017-08-01T22:57:31.511Z,17.70
2017-08-01T22:59:59.104Z,17.70
2017-08-01T23:02:26.738Z,17.60
2017-08-01T23:04:54.433Z,17.60
2017-08-01T23:07:22.007Z,17.60
2017-08-01T23:09:50.405Z,17.50
2017-08-01T23:12:17.989Z,17.50
2017-08-01T23:14:45.572Z,17.50
2017-08-01T23:17:13.197Z,17.50
2017-08-01T23:19:41.561Z,17.50
2017-08-01T23:22:09.917Z,17.50
2017-08-01T23:24:38.321Z,17.50
2017-08-01T23:27:06.006Z,17.50
2017-08-01T23:29:33.584Z,17.50
2017-08-01T23:32:02.163Z,17.40
2017-08-01T23:34:29.753Z,17.40
2017-08-01T23:36:57.340Z,17.40
2017-08-01T23:39:25.723Z,17.40
2017-08-01T23:41:53.314Z,17.40
2017-08-01T23:44:21.651Z,17.40
2017-08-01T23:46:49.284Z,17.40
2017-08-01T23:49:16.863Z,17.40
2017-08-01T23:51:45.221Z,17.40
2017-08-01T23:54:13.602Z,17.30
2017-08-01T23:56:41.170Z,17.30
2017-08-01T23:59:08.752Z,17.30
